Time;durP1;ratioP1;P1;durP2;ratioP2;P2;SDS_P1;SDS_P2;PMS_P1;PMS_P2;Temp;Humidity;BMP_temperature;BMP_pressure;BME280_temperature;BME280_humidity;BME280_pressure;Samples;Min_cycle;Max_cycle;Signal;HPM_P1;HPM_P2
2024/03/10 00:03:08;;;;;;;;;;;;;;;;;;;;;
2024/03/10 00:06:08;;;;;;;0.00;0.00;;;;;;;8.84;100.00;97859.28;5852277;24;20045;-82
2024/03/10 00:08:46;;;;;;;0.00;0.00;;;;;;;8.67;100.00;97840.97;5847960;24;20040;-80
2024/03/10 00:11:15;;;;;;;0.00;0.00;;;;;;;8.56;100.00;97816.75;5966346;24;20071;-79
2024/03/10 00:13:52;;;;;;;;;;;;;;;;;;;;;
2024/03/10 00:16:20;;;;;;;0.00;0.00;;;;;;;8.41;100.00;97800.81;6092324;23;20025;-82
2024/03/10 00:18:48;;;;;;;0.00;0.00;;;;;;;8.52;100.00;97829.38;6119605;23;20437;-78
2024/03/10 00:21:14;;;;;;;0.00;0.00;;;;;;;8.55;100.00;97839.63;6159168;23;20005;-75
2024/03/10 00:23:57;;;;;;;0.00;0.00;;;;;;;8.44;100.00;97830.19;6157550;23;20773;-78
2024/03/10 00:26:38;;;;;;;0.00;0.00;;;;;;;8.62;100.00;97871.09;6137389;23;20021;-80
2024/03/10 00:29:36;;;;;;;;;;;;;;;;;;;;;
2024/03/10 00:32:32;;;;;;;0.00;0.00;;;;;;;8.53;100.00;97871.06;6262322;22;20027;-78
2024/03/10 00:45:19;;;;;;;0.00;0.00;;;;;;;8.50;100.00;97877.94;6135845;22;20017;-80
2024/03/10 01:44:20;;;;;;;0.00;0.00;;;;;;;8.49;100.00;97859.97;5939938;24;20035;-80
2024/03/10 01:47:04;;;;;;;0.00;0.00;;;;;;;8.29;100.00;97819.66;5997046;23;20073;-79
2024/03/10 01:50:10;;;;;;;0.00;0.00;;;;;;;8.63;100.00;97887.13;6164214;23;20072;-79
2024/03/10 01:52:35;;;;;;;;;;;;;;;8.71;100.00;97888.25;6254492;23;19988;-79
2024/03/10 01:55:18;;;;;;;0.00;0.00;;;;;;;8.71;100.00;97893.72;6230094;23;19899;-79
2024/03/10 02:16:17;;;;;;;0.00;0.00;;;;;;;8.12;100.00;97889.25;6026790;23;20182;-79
2024/03/10 02:18:43;;;;;;;0.10;0.10;;;;;;;8.03;100.00;97881.03;6108883;23;20063;-79
2024/03/10 02:21:14;;;;;;;0.00;0.00;;;;;;;7.67;100.00;97829.44;6251096;23;20004;-80
2024/03/10 02:23:55;;;;;;;0.00;0.00;;;;;;;7.72;100.00;97826.59;6223645;23;20045;-79
2024/03/10 02:26:38;;;;;;;;;;;;;;;;;;;;;
2024/03/10 02:54:18;;;;;;;;;;;;;;;;;;;;;
2024/03/10 03:04:47;;;;;;;0.00;0.00;;;;;;;8.31;100.00;97905.38;5914187;24;20001;-75
2024/03/10 03:11:50;;;;;;;;;;;;;;;;;;;;;
2024/03/10 03:36:02;;;;;;;;;;;;;;;;;;;;;
2024/03/10 04:07:10;;;;;;;0.00;0.00;;;;;;;8.28;100.00;97876.06;5908636;24;20020;-74
2024/03/10 04:16:54;;;;;;;;;;;;;;;;;;;;;
2024/03/10 04:27:08;;;;;;;0.00;0.00;;;;;;;8.30;100.00;97898.31;5884702;24;20034;-75
2024/03/10 04:43:12;;;;;;;0.00;0.00;;;;;;;8.30;100.00;97949.25;5930031;24;20017;-74
2024/03/10 04:46:10;;;;;;;0.00;0.00;;;;;;;8.15;100.00;97931.41;5989787;23;20063;-75
2024/03/10 05:06:53;;;;;;;;;;;;;;;;;;;;;
2024/03/10 05:10:04;;;;;;;;;;;;;;;;;;;;;
2024/03/10 05:37:51;;;;;;;;;;;;;;;;;;;;;
2024/03/10 05:41:11;;;;;;;;;;;;;;;;;;;;;
2024/03/10 05:48:01;;;;;;;;;;;;;;;;;;;;;
2024/03/10 05:57:36;;;;;;;;;;;;;;;8.54;100.00;97987.06;5924651;24;20017;-75
2024/03/10 06:00:46;;;;;;;;;;;;;;;;;;;;;
2024/03/10 06:07:26;;;;;;;0.00;0.00;;;;;;;8.50;100.00;97984.16;5876672;24;20033;-75
2024/03/10 06:10:58;;;;;;;;;;;;;;;;;;;;;
2024/03/10 06:17:04;;;;;;;0.00;0.00;;;;;;;8.47;100.00;98003.03;5795097;24;20081;-75
2024/03/10 06:38:32;;;;;;;;;;;;;;;;;;;;;
2024/03/10 06:45:33;;;;;;;0.00;0.00;;;;;;;8.27;100.00;98021.47;5834276;24;20062;-75
2024/03/10 07:10:14;;;;;;;;;;;;;;;;;;;;;
2024/03/10 07:14:16;;;;;;;0.00;0.00;;;;;;;8.68;100.00;98090.50;5746600;25;20035;-75
2024/03/10 07:20:44;;;;;;;;;;;;;;;;;;;;;
2024/03/10 07:30:43;;;;;;;0.00;0.00;;;;;;;8.98;100.00;98099.84;5819080;24;20379;-75
2024/03/10 07:33:57;;;;;;;0.00;0.00;;;;;;;9.04;100.00;98108.69;5901115;23;20023;-80
2024/03/10 07:47:32;;;;;;;0.00;0.00;;;;;;;9.16;100.00;98095.28;5893694;24;20014;-75
2024/03/10 07:49:59;;;;;;;0.00;0.00;;;;;;;9.19;100.00;98102.81;5902734;23;20104;-74
2024/03/10 07:52:25;;;;;;;0.00;0.00;;;;;;;9.09;100.00;98086.72;6044493;23;20110;-73
2024/03/10 07:54:53;;;;;;;0.00;0.00;;;;;;;9.25;100.00;98101.56;6127090;23;20071;-74
2024/03/10 08:07:49;;;;;;;0.00;0.00;;;;;;;9.98;100.00;98140.50;6246090;23;20038;-74
2024/03/10 08:10:16;;;;;;;0.08;0.08;;;;;;;9.96;100.00;98133.44;6219299;23;20008;-74
2024/03/10 08:12:59;;;;;;;;;;;;;;;;;;;;;
2024/03/10 08:15:25;;;;;;;0.00;0.00;;;;;;;10.04;100.00;98150.16;6225971;23;20379;-74
2024/03/10 08:17:52;;;;;;;0.00;0.00;;;;;;;9.88;100.00;98127.94;6221388;23;20015;-75
2024/03/10 08:20:21;;;;;;;0.00;0.00;;;;;;;10.01;100.00;98162.50;6224664;23;20007;-74
2024/03/10 08:22:46;;;;;;;0.00;0.00;;;;;;;10.05;100.00;98157.22;6205255;23;20008;-74
2024/03/10 08:25:12;;;;;;;0.00;0.00;;;;;;;10.18;100.00;98161.75;6203873;23;20336;-76
2024/03/10 08:27:38;;;;;;;0.00;0.00;;;;;;;10.36;100.00;98164.53;6198930;23;20014;-74
2024/03/10 08:30:09;;;;;;;0.00;0.00;;;;;;;10.51;100.00;98171.47;6225458;23;20020;-74
2024/03/10 08:32:35;;;;;;;0.00;0.00;;;;;;;10.60;100.00;98184.00;6265008;22;20026;-74
2024/03/10 08:35:04;;;;;;;0.00;0.00;;;;;;;10.55;100.00;98170.50;6254845;22;20440;-74
2024/03/10 08:37:30;;;;;;;0.00;0.00;;;;;;;10.68;100.00;98193.31;6227033;22;20008;-75
2024/03/10 08:40:05;;;;;;;0.00;0.00;;;;;;;10.66;100.00;98176.47;6226429;22;20107;-74
2024/03/10 08:42:36;;;;;;;0.00;0.00;;;;;;;10.76;100.00;98191.72;6278679;22;19999;-74
2024/03/10 08:45:02;;;;;;;0.00;0.00;;;;;;;10.78;100.00;98184.00;6250692;22;20003;-74
2024/03/10 08:47:33;;;;;;;0.00;0.00;;;;;;;10.93;99.90;98191.72;6227502;22;20430;-75
2024/03/10 08:49:59;;;;;;;0.00;0.00;;;;;;;10.90;99.63;98178.69;6250463;22;20094;-75
2024/03/10 08:52:25;;;;;;;0.00;0.00;;;;;;;11.15;98.81;98201.66;6253049;22;20038;-76
2024/03/10 08:54:50;;;;;;;0.00;0.00;;;;;;;11.12;98.20;98180.41;6226408;22;20461;-74
2024/03/10 08:57:16;;;;;;;0.00;0.00;;;;;;;11.40;98.02;98199.19;6251660;22;20275;-75
2024/03/10 08:59:45;;;;;;;0.00;0.00;;;;;;;11.57;96.58;98192.09;6201430;22;20019;-74
2024/03/10 09:02:18;;;;;;;0.00;0.00;;;;;;;11.59;96.36;98168.72;6250884;22;20402;-75
2024/03/10 09:04:44;;;;;;;0.00;0.00;;;;;;;11.77;95.12;98174.94;6252938;22;20003;-76
2024/03/10 09:07:10;;;;;;;0.00;0.00;;;;;;;12.00;94.18;98202.06;6225103;22;20007;-74
2024/03/10 09:09:44;;;;;;;0.00;0.00;;;;;;;11.87;93.35;98179.22;6226949;22;20003;-74
2024/03/10 10:51:20;;;;;;;0.00;0.00;;;;;;;13.47;72.42;98247.19;6241630;22;20001;-77
2024/03/10 10:53:49;;;;;;;0.00;0.00;;;;;;;13.60;72.87;98204.88;6193999;23;20058;-78
2024/03/10 10:56:28;;;;;;;0.00;0.00;;;;;;;14.07;71.27;98209.16;6218754;23;20017;-80
2024/03/10 10:59:24;;;;;;;0.00;0.00;;;;;;;14.58;70.36;98211.53;6220712;23;20000;-78
2024/03/10 11:02:35;;;;;;;0.00;0.00;;;;;;;15.40;69.02;98237.88;6197799;22;20023;-80
2024/03/10 11:05:04;;;;;;;0.00;0.00;;;;;;;15.77;66.43;98218.41;6180988;23;20004;-80
2024/03/10 11:07:32;;;;;;;0.00;0.00;;;;;;;16.11;64.89;98223.59;6247269;22;19997;-77
2024/03/10 11:09:58;;;;;;;0.00;0.00;;;;;;;16.61;64.95;98254.31;6186566;23;20020;-77
2024/03/10 11:12:25;;;;;;;0.00;0.00;;;;;;;16.93;63.73;98232.97;6215573;23;20008;-74
2024/03/10 11:14:59;;;;;;;0.00;0.00;;;;;;;16.90;59.89;98233.69;6198711;23;20008;-81
2024/03/10 11:17:29;;;;;;;0.00;0.00;;;;;;;16.94;58.58;98253.91;6219995;23;20009;-75
2024/03/10 11:19:56;;;;;;;0.00;0.00;;;;;;;17.96;59.34;98236.16;6218442;23;20329;-77
2024/03/10 11:22:52;;;;;;;0.00;0.00;;;;;;;19.93;55.94;98246.69;6215070;23;20012;-77
2024/03/10 11:25:20;;;;;;;0.00;0.00;;;;;;;21.75;50.69;98243.41;6223744;23;20004;-77
2024/03/10 11:27:48;;;;;;;0.00;0.00;;;;;;;21.85;50.19;98244.63;6195215;23;20005;-81
2024/03/10 11:30:46;;;;;;;0.00;0.00;;;;;;;21.97;49.96;98257.34;6225191;23;20008;-78
2024/03/10 11:33:21;;;;;;;0.00;0.00;;;;;;;21.93;46.42;98259.34;6222483;23;20016;-78
2024/03/10 11:35:46;;;;;;;0.00;0.00;;;;;;;22.11;46.79;98240.69;6221329;23;20012;-78
2024/03/10 11:38:12;;;;;;;0.00;0.00;;;;;;;22.17;46.86;98259.78;6222048;23;20012;-79
2024/03/10 11:40:44;;;;;;;0.00;0.00;;;;;;;21.55;46.88;98247.75;6199873;23;20087;-77
2024/03/10 11:43:35;;;;;;;0.00;0.00;;;;;;;20.87;46.33;98246.25;6222275;23;20027;-80
2024/03/10 11:46:22;;;;;;;0.00;0.00;;;;;;;20.93;47.48;98236.34;6223666;23;20058;-79
2024/03/10 11:49:12;;;;;;;0.00;0.00;;;;;;;22.07;46.58;98248.22;6224061;23;20063;-79
2024/03/10 11:51:40;;;;;;;0.00;0.00;;;;;;;22.96;44.38;98245.78;6220051;23;20071;-78
2024/03/10 11:54:13;;;;;;;0.00;0.00;;;;;;;23.03;44.33;98245.75;6249268;23;19996;-79
2024/03/10 11:56:42;;;;;;;0.00;0.00;;;;;;;22.59;44.14;98260.97;6222064;23;20060;-78
2024/03/10 11:59:11;;;;;;;0.00;0.00;;;;;;;21.55;45.00;98250.53;6220442;23;20000;-78
2024/03/10 12:01:39;;;;;;;0.00;0.00;;;;;;;21.29;45.63;98277.41;6248637;23;20073;-78
2024/03/10 12:04:19;;;;;;;;;;;;;;;;;;;;;
2024/03/10 12:06:53;;;;;;;0.00;0.00;;;;;;;20.12;47.32;98226.25;6249982;23;20505;-78
2024/03/10 12:09:23;;;;;;;0.00;0.00;;;;;;;20.12;48.20;98273.41;6193944;23;20108;-79
2024/03/10 12:11:50;;;;;;;0.00;0.00;;;;;;;19.94;48.67;98271.28;6248876;23;20004;-76
2024/03/10 12:14:21;;;;;;;0.00;0.00;;;;;;;19.84;48.07;98269.19;6245516;23;20029;-76
2024/03/10 12:16:51;;;;;;;0.00;0.00;;;;;;;19.61;47.70;98264.59;6197602;23;20032;-77
2024/03/10 12:19:26;;;;;;;0.00;0.00;;;;;;;19.36;47.69;98276.19;6222906;23;20008;-79
2024/03/10 12:21:52;;;;;;;0.00;0.00;;;;;;;19.68;48.00;98233.34;6228017;23;20004;-78
2024/03/10 12:24:17;;;;;;;0.00;0.00;;;;;;;20.76;46.90;98264.81;6233143;23;20012;-78
2024/03/10 12:26:46;;;;;;;0.00;0.00;;;;;;;21.41;46.36;98271.50;6199390;23;20095;-75
2024/03/10 12:29:12;;;;;;;0.00;0.00;;;;;;;21.77;45.38;98282.78;6224570;23;20004;-77
2024/03/10 12:31:38;;;;;;;0.00;0.00;;;;;;;21.59;45.16;98273.56;6225755;23;20008;-78
2024/03/10 12:34:04;;;;;;;0.00;0.00;;;;;;;21.14;45.77;98264.63;6223326;23;19999;-76
2024/03/10 12:36:33;;;;;;;0.00;0.00;;;;;;;20.85;45.87;98278.34;6194777;23;20088;-76
2024/03/10 12:38:59;;;;;;;0.00;0.00;;;;;;;20.60;46.56;98273.41;6223280;22;20000;-78
2024/03/10 12:41:28;;;;;;;0.00;0.00;;;;;;;20.43;46.38;98276.84;6246279;23;20491;-76
2024/03/10 12:43:55;;;;;;;0.00;0.00;;;;;;;20.36;46.62;98270.06;6250961;23;19988;-76
2024/03/10 12:46:22;;;;;;;0.00;0.00;;;;;;;20.34;46.35;98278.00;6251323;22;20004;-76
2024/03/10 12:48:48;;;;;;;0.00;0.00;;;;;;;20.49;46.21;98269.78;6255601;23;20004;-75
2024/03/10 12:51:24;;;;;;;0.00;0.00;;;;;;;20.78;45.54;98289.41;6225766;23;20442;-76
2024/03/10 12:53:49;;;;;;;0.00;0.00;;;;;;;20.70;45.40;98269.94;6198481;23;20040;-78
2024/03/10 12:56:17;;;;;;;0.00;0.00;;;;;;;20.85;44.98;98289.47;6222211;23;20009;-76
2024/03/10 12:58:48;;;;;;;0.00;0.00;;;;;;;21.01;44.61;98292.75;6192954;23;20013;-78
2024/03/10 13:01:16;;;;;;;0.00;0.00;;;;;;;20.93;44.12;98280.00;6195104;23;20007;-78
2024/03/10 13:03:42;;;;;;;0.00;0.00;;;;;;;20.94;44.01;98270.50;6194981;23;20020;-79
2024/03/10 13:06:14;;;;;;;0.00;0.00;;;;;;;20.95;44.25;98249.84;6195759;23;20011;-78
2024/03/10 13:08:54;;;;;;;0.00;0.00;;;;;;;20.99;43.72;98264.56;6195406;23;19999;-77
2024/03/10 13:11:37;;;;;;;0.00;0.00;;;;;;;21.01;43.87;98287.22;6221547;23;20050;-78
2024/03/10 13:14:13;;;;;;;0.00;0.00;;;;;;;21.05;44.15;98265.78;6169819;23;20102;-79
2024/03/10 13:16:38;;;;;;;0.00;0.00;;;;;;;21.44;43.24;98258.81;6197486;23;20056;-77
2024/03/10 13:19:05;;;;;;;0.00;0.00;;;;;;;21.67;42.40;98252.13;6194291;23;20024;-77
2024/03/10 13:21:30;;;;;;;0.00;0.00;;;;;;;21.71;41.45;98267.66;6172539;23;20008;-76
2024/03/10 13:23:59;;;;;;;0.00;0.00;;;;;;;21.94;41.96;98275.63;6194840;23;20008;-77
2024/03/10 13:26:25;;;;;;;0.00;0.00;;;;;;;21.98;41.05;98258.97;6170037;23;19992;-78
2024/03/10 13:28:50;;;;;;;0.00;0.00;;;;;;;21.76;40.48;98264.47;6219728;23;20377;-76
2024/03/10 13:31:24;;;;;;;0.00;0.00;;;;;;;21.41;40.37;98268.72;6169583;23;20020;-76
2024/03/10 13:33:49;;;;;;;0.00;0.00;;;;;;;20.41;40.07;98257.81;6195704;23;20013;-77
2024/03/10 13:36:19;;;;;;;0.00;0.00;;;;;;;20.35;41.20;98271.22;6170345;23;20009;-79
2024/03/10 13:38:49;;;;;;;0.00;0.00;;;;;;;20.30;41.15;98246.63;6217922;23;20000;-76
2024/03/10 13:41:15;;;;;;;0.00;0.00;;;;;;;20.41;41.40;98260.56;6171073;23;20012;-76
2024/03/10 13:43:43;;;;;;;0.00;0.00;;;;;;;20.50;40.84;98249.13;6194414;23;20051;-77
2024/03/10 13:46:12;;;;;;;0.00;0.00;;;;;;;20.89;40.55;98235.53;6220032;23;20616;-75
2024/03/10 13:48:38;;;;;;;0.00;0.00;;;;;;;21.14;40.16;98245.19;6193819;23;20015;-75
2024/03/10 13:51:04;;;;;;;0.00;0.00;;;;;;;20.78;40.17;98245.81;6220791;23;20009;-76
2024/03/10 13:53:29;;;;;;;0.00;0.00;;;;;;;20.62;40.47;98268.28;6163199;23;20024;-76
2024/03/10 13:55:55;;;;;;;0.00;0.00;;;;;;;20.05;40.42;98238.09;6194870;23;19996;-77
2024/03/10 13:58:50;;;;;;;0.00;0.00;;;;;;;19.46;41.63;98246.19;6188478;23;20024;-76
2024/03/10 14:01:07;;;;;;;0.00;0.00;;;;;;;19.24;42.25;98262.56;6202218;23;20008;-75
2024/03/10 14:03:35;;;;;;;0.00;0.00;;;;;;;19.15;42.88;98264.81;6190629;23;19989;-75
2024/03/10 14:06:01;;;;;;;0.00;0.00;;;;;;;19.50;42.51;98263.66;6182252;23;20004;-76
2024/03/10 14:08:26;;;;;;;0.00;0.00;;;;;;;19.34;42.80;98245.25;6164574;23;20012;-76
2024/03/10 14:10:52;;;;;;;0.00;0.00;;;;;;;19.44;43.09;98235.47;6217631;23;20016;-76
2024/03/10 14:13:18;;;;;;;0.00;0.00;;;;;;;19.58;42.95;98270.88;6194823;23;20664;-76
2024/03/10 14:15:48;;;;;;;0.00;0.00;;;;;;;19.42;42.98;98257.25;6193110;23;20001;-77
2024/03/10 14:18:25;;;;;;;0.00;0.00;;;;;;;19.46;42.92;98257.28;6194160;23;20018;-76
2024/03/10 14:21:04;;;;;;;;;;;;;;;;;;;;;
2024/03/10 14:23:40;;;;;;;0.00;0.00;;;;;;;19.28;42.82;98273.69;6222449;23;20016;-77
2024/03/10 14:26:08;;;;;;;0.00;0.00;;;;;;;19.06;42.56;98283.72;6222688;23;20007;-76
2024/03/10 14:28:34;;;;;;;0.00;0.00;;;;;;;18.90;42.82;98267.25;6193175;23;20008;-77
2024/03/10 14:31:03;;;;;;;0.00;0.00;;;;;;;18.64;43.21;98272.38;6192933;23;20008;-76
2024/03/10 14:33:40;;;;;;;0.00;0.00;;;;;;;18.42;44.02;98273.25;6220268;23;20008;-77
2024/03/10 14:36:09;;;;;;;0.00;0.00;;;;;;;18.36;44.16;98247.06;6218379;23;20017;-77
2024/03/10 14:38:34;;;;;;;0.00;0.00;;;;;;;18.56;43.96;98287.31;6220257;23;20000;-77
2024/03/10 14:41:00;;;;;;;0.00;0.00;;;;;;;18.09;43.93;98256.13;6194844;23;20087;-77
2024/03/10 14:43:26;;;;;;;0.00;0.00;;;;;;;17.77;44.42;98244.44;6219042;23;20020;-78
2024/03/10 14:45:54;;;;;;;0.00;0.00;;;;;;;17.76;45.24;98287.09;6193967;23;20008;-77
2024/03/10 14:48:30;;;;;;;0.00;0.00;;;;;;;17.51;45.69;98270.84;6196527;23;20064;-76
2024/03/10 14:50:57;;;;;;;0.00;0.00;;;;;;;17.51;45.25;98270.03;6194352;23;20008;-77
2024/03/10 14:53:24;;;;;;;0.00;0.00;;;;;;;17.68;45.33;98246.66;6217798;23;20012;-75
2024/03/10 14:55:50;;;;;;;0.00;0.00;;;;;;;18.19;45.32;98276.03;6191610;23;20000;-77
2024/03/10 14:58:19;;;;;;;0.00;0.00;;;;;;;18.38;45.51;98288.97;6191723;23;20139;-77
2024/03/10 15:00:46;;;;;;;0.00;0.00;;;;;;;17.84;44.41;98271.44;6192943;23;20147;-78
2024/03/10 15:03:16;;;;;;;0.00;0.00;;;;;;;17.63;44.23;98284.47;6199479;23;20005;-78
2024/03/10 15:05:49;;;;;;;0.00;0.00;;;;;;;17.80;44.95;98271.38;6196744;23;20012;-79
2024/03/10 15:15:38;;;;;;;0.00;0.00;;;;;;;18.91;43.96;98289.03;6212635;23;20095;-75
2024/03/10 15:18:24;;;;;;;;;;;;;;;;;;;;;
2024/03/10 15:20:50;;;;;;;0.00;0.00;;;;;;;19.75;43.13;98280.56;6215056;23;20091;-74
2024/03/10 15:23:17;;;;;;;0.00;0.00;;;;;;;20.47;42.32;98302.66;6190556;23;20044;-75
2024/03/10 15:26:05;;;;;;;0.00;0.00;;;;;;;20.59;41.21;98299.59;6188937;23;20004;-75
2024/03/10 15:28:41;;;;;;;0.00;0.00;;;;;;;20.17;40.65;98273.88;6189005;23;20030;-75
2024/03/10 15:31:34;;;;;;;;;;;;;;;;;;;;;
2024/03/10 15:34:17;;;;;;;;;;;;;;;;;;;;;
2024/03/10 15:36:43;;;;;;;0.00;0.00;;;;;;;19.84;40.68;98283.06;6214874;23;20035;-75
2024/03/10 15:39:24;;;;;;;0.00;0.00;;;;;;;19.21;41.30;98273.59;6215645;23;20430;-74
2024/03/10 15:42:01;;;;;;;0.00;0.00;;;;;;;18.74;42.79;98306.94;6164762;23;20008;-75
2024/03/10 15:44:30;;;;;;;0.00;0.00;;;;;;;18.34;43.75;98294.47;6193070;23;20011;-74
2024/03/10 15:47:02;;;;;;;0.00;0.00;;;;;;;18.43;43.87;98308.06;6189936;23;20009;-77
2024/03/10 15:49:28;;;;;;;0.00;0.00;;;;;;;18.50;44.15;98299.88;6195249;23;20017;-78
2024/03/10 15:52:19;;;;;;;0.00;0.00;;;;;;;18.30;44.40;98288.06;6191760;23;20024;-75
2024/03/10 15:54:45;;;;;;;0.00;0.00;;;;;;;18.54;44.09;98328.38;6169580;23;20056;-76
2024/03/10 15:57:13;;;;;;;0.00;0.00;;;;;;;18.51;44.00;98331.88;6142465;23;20083;-77
2024/03/10 15:59:50;;;;;;;0.00;0.00;;;;;;;18.40;43.76;98320.66;6192486;23;20019;-76
2024/03/10 16:02:27;;;;;;;0.00;0.00;;;;;;;18.57;43.89;98341.47;6192401;23;20435;-75
2024/03/10 16:05:03;;;;;;;0.00;0.00;;;;;;;18.46;43.65;98323.91;6165918;23;20439;-76
2024/03/10 16:07:55;;;;;;;0.00;0.00;;;;;;;18.13;43.63;98300.44;6169980;23;20012;-75
2024/03/10 16:10:26;;;;;;;0.00;0.00;;;;;;;18.14;43.91;98313.88;6199161;23;20012;-79
2024/03/10 16:13:14;;;;;;;0.00;0.00;;;;;;;18.28;43.61;98354.84;6195067;23;20017;-75
2024/03/10 16:15:45;;;;;;;0.00;0.00;;;;;;;17.73;43.56;98352.19;6192660;23;20064;-76
2024/03/10 16:18:14;;;;;;;0.00;0.00;;;;;;;17.09;43.88;98340.59;6220940;23;20008;-76
2024/03/10 16:20:45;;;;;;;0.00;0.00;;;;;;;16.84;44.54;98368.38;6219563;23;20023;-76
2024/03/10 16:23:14;;;;;;;0.00;0.00;;;;;;;16.37;47.36;98370.00;6193014;23;20011;-76
2024/03/10 16:25:46;;;;;;;0.00;0.00;;;;;;;15.71;50.98;98357.56;6195265;23;20001;-77
2024/03/10 16:28:34;;;;;;;0.00;0.00;;;;;;;15.19;52.71;98368.28;6200878;23;20019;-75
2024/03/10 16:30:59;;;;;;;0.00;0.00;;;;;;;14.54;53.81;98320.63;6175272;23;20011;-77
2024/03/10 16:33:26;;;;;;;0.00;0.00;;;;;;;14.48;55.30;98364.03;6194470;23;20005;-77
2024/03/10 16:35:51;;;;;;;0.00;0.00;;;;;;;14.17;55.98;98353.56;6170060;23;20004;-75
2024/03/10 16:38:17;;;;;;;0.00;0.00;;;;;;;13.99;56.59;98358.44;6165641;23;20001;-76
2024/03/10 16:40:51;;;;;;;0.00;0.00;;;;;;;13.64;57.57;98351.34;6219937;23;20067;-77
2024/03/10 16:43:20;;;;;;;0.00;0.00;;;;;;;13.16;58.60;98333.47;6189515;23;20001;-77
2024/03/10 16:45:48;;;;;;;0.00;0.00;;;;;;;12.90;59.64;98331.69;6192844;23;20004;-76
2024/03/10 16:48:15;;;;;;;0.00;0.00;;;;;;;12.85;61.00;98360.13;6188935;23;20000;-76
2024/03/10 16:50:51;;;;;;;0.00;0.00;;;;;;;12.57;62.19;98344.16;6192825;23;20312;-77
2024/03/10 16:53:19;;;;;;;0.00;0.00;;;;;;;12.70;62.79;98390.84;6179396;23;20020;-76
2024/03/10 16:55:45;;;;;;;0.00;0.00;;;;;;;12.47;63.50;98379.34;6193479;23;20005;-78
2024/03/10 16:58:29;;;;;;;0.00;0.00;;;;;;;12.17;64.20;98363.63;6192101;23;20000;-77
2024/03/10 17:01:06;;;;;;;0.00;0.00;;;;;;;12.01;65.26;98377.03;6218633;23;20012;-77
2024/03/10 17:03:46;;;;;;;0.00;0.00;;;;;;;11.93;65.84;98408.00;6188372;23;20005;-76
2024/03/10 17:06:21;;;;;;;0.00;0.00;;;;;;;11.67;66.93;98395.09;6196511;23;20063;-77
2024/03/10 17:08:49;;;;;;;0.00;0.00;;;;;;;11.38;67.53;98386.75;6188934;23;20097;-77
2024/03/10 17:11:25;;;;;;;0.00;0.00;;;;;;;11.24;68.44;98382.19;6192957;23;20005;-78
2024/03/10 17:14:04;;;;;;;0.00;0.00;;;;;;;10.93;70.28;98366.72;6190808;23;20001;-76
2024/03/10 17:17:05;;;;;;;0.00;0.00;;;;;;;10.78;71.58;98373.44;6195956;23;20004;-78
2024/03/10 17:22:32;;;;;;;0.00;0.00;;;;;;;10.83;73.58;98411.59;6203500;23;20012;-76
2024/03/10 17:24:59;;;;;;;0.00;0.00;;;;;;;10.84;74.56;98426.06;6216971;23;20000;-75
2024/03/10 17:27:27;;;;;;;0.00;0.00;;;;;;;10.75;75.79;98420.56;6189971;23;20061;-75
2024/03/10 17:29:57;;;;;;;0.00;0.00;;;;;;;10.53;76.76;98402.31;6165461;23;20009;-74
2024/03/10 17:32:40;;;;;;;0.00;0.00;;;;;;;10.52;78.32;98417.06;6214115;23;20012;-74
2024/03/10 17:38:32;;;;;;;0.00;0.00;;;;;;;10.47;79.21;98441.81;6220062;23;20019;-75
2024/03/10 17:40:57;;;;;;;0.00;0.00;;;;;;;10.18;80.75;98423.13;6190963;23;20072;-74
2024/03/10 17:43:25;;;;;;;0.00;0.00;;;;;;;10.04;81.74;98409.56;6161908;23;20016;-74
2024/03/10 17:46:16;;;;;;;0.00;0.00;;;;;;;10.06;82.55;98427.25;6216164;23;20539;-72
2024/03/10 18:22:22;;;;;;;0.03;0.03;;;;;;;9.36;94.83;98480.44;6099535;23;20098;-77
2024/03/10 18:24:50;;;;;;;0.00;0.00;;;;;;;9.27;94.38;98455.78;6074230;23;20101;-73
2024/03/10 18:27:16;;;;;;;0.10;0.10;;;;;;;9.45;93.36;98481.34;6123514;23;20014;-74
2024/03/10 18:29:46;;;;;;;0.00;0.00;;;;;;;9.60;93.07;98493.84;6204903;23;20309;-74
2024/03/10 18:32:12;;;;;;;0.00;0.00;;;;;;;9.52;92.74;98473.56;6188212;23;20011;-72
2024/03/10 18:34:43;;;;;;;0.10;0.10;;;;;;;9.55;92.64;98467.47;6214172;23;20036;-73
2024/03/10 18:37:11;;;;;;;0.00;0.00;;;;;;;9.56;92.07;98471.81;6192434;23;20065;-75
2024/03/10 18:43:08;;;;;;;0.00;0.00;;;;;;;9.68;92.15;98478.66;6219487;23;20047;-79
2024/03/10 18:45:34;;;;;;;0.00;0.00;;;;;;;9.37;92.12;98441.13;6195978;23;20011;-78
2024/03/10 19:22:37;;;;;;;0.00;0.00;;;;;;;8.89;96.34;98492.28;6242794;23;20078;-77
2024/03/10 19:25:12;;;;;;;;;;;;;;;;;;;;;
2024/03/10 19:27:39;;;;;;;0.00;0.00;;;;;;;9.05;96.40;98520.06;6193734;23;20041;-76
2024/03/10 19:30:07;;;;;;;0.00;0.00;;;;;;;9.07;96.53;98534.19;6218989;23;20000;-77
2024/03/10 19:32:42;;;;;;;0.00;0.00;;;;;;;9.07;96.49;98533.41;6194196;23;20004;-77
2024/03/10 19:35:11;;;;;;;0.00;0.00;;;;;;;9.12;96.98;98540.66;6192331;23;20008;-78
2024/03/10 19:37:37;;;;;;;0.00;0.00;;;;;;;9.07;96.58;98544.31;6217373;23;20087;-78
2024/03/10 19:40:03;;;;;;;0.00;0.00;;;;;;;8.96;96.77;98526.50;6164048;23;20012;-77
2024/03/10 19:42:28;;;;;;;0.00;0.00;;;;;;;8.98;96.54;98530.56;6191622;23;20019;-78
2024/03/10 19:44:55;;;;;;;0.00;0.00;;;;;;;9.03;96.37;98554.19;6217109;23;20392;-76
2024/03/10 19:47:26;;;;;;;0.00;0.00;;;;;;;8.97;96.37;98552.66;6192848;23;20008;-77
2024/03/10 19:50:10;;;;;;;0.00;0.00;;;;;;;8.95;96.83;98554.88;6218828;23;20000;-76
2024/03/10 19:52:43;;;;;;;0.00;0.00;;;;;;;9.11;97.23;98588.91;6171849;23;20415;-77
2024/03/10 19:55:10;;;;;;;0.00;0.00;;;;;;;9.12;96.98;98596.00;6218285;23;20012;-78
2024/03/10 19:57:37;;;;;;;0.00;0.00;;;;;;;9.00;96.92;98576.59;6202636;23;20012;-77
2024/03/10 20:00:16;;;;;;;0.00;0.00;;;;;;;9.04;97.27;98594.78;6222744;23;20016;-79
2024/03/10 20:02:46;;;;;;;0.00;0.00;;;;;;;9.07;97.42;98596.91;6220110;23;20008;-80
2024/03/10 20:05:17;;;;;;;0.00;0.00;;;;;;;8.94;97.33;98575.09;6193294;23;20021;-77
2024/03/10 20:07:47;;;;;;;0.00;0.00;;;;;;;9.14;97.53;98604.69;6193697;23;20378;-76
2024/03/10 20:10:16;;;;;;;0.00;0.00;;;;;;;8.91;97.71;98580.00;6191936;23;20040;-76
2024/03/10 20:12:42;;;;;;;0.00;0.00;;;;;;;9.13;97.88;98619.44;6193834;23;20068;-76
2024/03/10 20:15:09;;;;;;;0.00;0.00;;;;;;;9.09;97.85;98621.13;6218494;23;20020;-78
2024/03/10 20:17:48;;;;;;;0.00;0.00;;;;;;;8.88;98.54;98591.53;6166575;23;19992;-77
2024/03/10 20:20:27;;;;;;;0.00;0.00;;;;;;;8.94;98.69;98605.06;6193367;23;20007;-76
2024/03/10 20:22:56;;;;;;;0.00;0.00;;;;;;;8.85;99.55;98597.56;6217295;23;20009;-76
2024/03/10 20:25:25;;;;;;;0.00;0.00;;;;;;;8.82;100.00;98609.06;6192646;23;20007;-77
2024/03/10 20:28:03;;;;;;;0.00;0.00;;;;;;;8.46;100.00;98560.63;6192875;23;20016;-76
2024/03/10 20:30:38;;;;;;;0.00;0.00;;;;;;;8.62;100.00;98587.63;6218252;23;20008;-76
2024/03/10 20:33:05;;;;;;;0.00;0.00;;;;;;;8.85;100.00;98618.59;6168529;23;20072;-77
2024/03/10 20:35:33;;;;;;;0.00;0.00;;;;;;;8.89;100.00;98620.41;6215984;23;20009;-77
2024/03/10 20:38:01;;;;;;;0.00;0.00;;;;;;;8.91;100.00;98623.63;6189617;23;20071;-75
2024/03/10 20:40:27;;;;;;;0.00;0.00;;;;;;;8.93;100.00;98623.31;6192349;23;20036;-74
2024/03/10 20:42:53;;;;;;;0.00;0.00;;;;;;;8.81;99.90;98604.72;6191269;23;20005;-76
2024/03/10 20:45:25;;;;;;;0.00;0.00;;;;;;;8.78;99.41;98597.16;6215291;23;20004;-74
2024/03/10 20:47:51;;;;;;;0.00;0.00;;;;;;;8.91;99.40;98625.56;6218320;23;20441;-74
2024/03/10 20:54:35;;;;;;;0.00;0.00;;;;;;;8.56;99.15;98590.41;6096394;23;20092;-77
2024/03/10 20:57:27;;;;;;;0.00;0.00;;;;;;;8.95;99.16;98650.28;6028985;23;20453;-77
2024/03/10 21:00:03;;;;;;;0.00;0.00;;;;;;;8.93;99.01;98647.06;6125407;23;20134;-77
2024/03/10 21:03:23;;;;;;;0.00;0.00;;;;;;;8.48;99.19;98587.56;6197707;23;20011;-76
2024/03/10 21:06:21;;;;;;;0.00;0.00;;;;;;;8.72;99.19;98641.94;6208531;23;20008;-78
2024/03/10 21:08:52;;;;;;;0.00;0.00;;;;;;;8.68;99.23;98640.91;6191139;23;20124;-77
2024/03/10 22:18:28;;;;;;;0.00;0.00;;;;;;;7.69;100.00;98632.44;6178406;22;20332;-75
2024/03/10 22:21:04;;;;;;;0.00;0.00;;;;;;;7.76;100.00;98643.00;6188619;23;20020;-76
2024/03/10 22:26:56;;;;;;;0.00;0.00;;;;;;;7.72;100.00;98658.28;6084341;23;20070;-75
2024/03/10 22:29:22;;;;;;;0.00;0.00;;;;;;;7.73;100.00;98659.91;6071329;23;20053;-75
2024/03/10 22:32:13;;;;;;;0.00;0.00;;;;;;;7.72;100.00;98669.16;6176398;23;20013;-75
2024/03/10 22:34:38;;;;;;;0.00;0.00;;;;;;;7.75;100.00;98682.97;6158637;23;20019;-77
2024/03/10 22:37:04;;;;;;;0.00;0.00;;;;;;;7.78;100.00;98696.03;6221221;23;20005;-76
2024/03/10 22:39:39;;;;;;;0.00;0.00;;;;;;;7.59;100.00;98665.22;6193147;23;20016;-77